createdAt,value
2022-09-17T00:00:02.436Z,98769.94
2022-09-17T00:01:07.560Z,98773.45
2022-09-17T00:02:11.096Z,98778.81
2022-09-17T00:03:13.345Z,98783.33
2022-09-17T00:04:15.579Z,98786.00
2022-09-17T00:05:17.648Z,98780.78
2022-09-17T00:06:21.216Z,98786.00
2022-09-17T00:07:23.408Z,98793.19
2022-09-17T00:08:26.227Z,98802.06
2022-09-17T00:10:31.134Z,98807.41
2022-09-17T00:11:36.915Z,98815.44
2022-09-17T00:12:39.038Z,98810.09
2022-09-17T00:13:42.875Z,98807.55
2022-09-17T00:14:45.025Z,98803.03
2022-09-17T00:15:47.916Z,98798.55
2022-09-17T00:16:50.237Z,98802.06
2022-09-17T00:17:55.854Z,98801.22
2022-09-17T00:18:58.769Z,98801.22
2022-09-17T00:21:04.647Z,98786.14
2022-09-17T00:23:09.229Z,98783.46
2022-09-17T00:25:13.686Z,98785.16
2022-09-17T00:26:16.412Z,98778.94
2022-09-17T00:27:18.486Z,98780.64
2022-09-17T00:28:22.661Z,98777.13
2022-09-17T00:29:25.775Z,98774.45
2022-09-17T00:30:28.870Z,98774.45
2022-09-17T00:31:31.766Z,98778.94
2022-09-17T00:33:36.354Z,98779.81
2022-09-17T00:34:38.434Z,98775.43
2022-09-17T00:36:44.181Z,98774.45
2022-09-17T00:37:46.274Z,98771.78
2022-09-17T00:38:53.726Z,98782.48
2022-09-17T00:40:59.060Z,98786.00
2022-09-17T00:42:01.838Z,98784.16
2022-09-17T00:43:05.327Z,98781.62
2022-09-17T00:44:42.768Z,98783.33
2022-09-17T00:45:45.212Z,98777.13
2022-09-17T00:46:47.670Z,98769.11
2022-09-17T00:47:54.514Z,98761.08
2022-09-17T00:51:08.293Z,98762.19
2022-09-17T00:52:13.183Z,98768.51
2022-09-17T00:53:17.710Z,98772.16
2022-09-17T00:54:19.893Z,98778.52
2022-09-17T00:56:47.893Z,98790.81
2022-09-17T00:57:52.183Z,98790.05
2022-09-17T00:58:54.331Z,98793.70
2022-09-17T00:59:57.245Z,98800.76
2022-09-17T01:00:59.573Z,98792.87
2022-09-17T01:02:01.899Z,98798.22
2022-09-17T01:03:04.249Z,98809.77
2022-09-17T01:04:06.458Z,98808.79
2022-09-17T01:05:08.847Z,98807.95
2022-09-17T01:06:17.801Z,98814.14
2022-09-17T01:08:50.827Z,98803.22
2022-09-17T01:10:09.133Z,98792.73
2022-09-17T01:11:30.449Z,98798.08
2022-09-17T01:13:03.743Z,98786.55
2022-09-17T01:14:21.524Z,98783.87
2022-09-17T01:15:45.330Z,98787.52
2022-09-17T01:17:17.390Z,98790.33
2022-09-17T01:18:26.490Z,98791.30
2022-09-17T01:19:53.125Z,98797.76
2022-09-17T01:21:31.340Z,98794.24
2022-09-17T01:22:46.738Z,98809.43
2022-09-17T01:23:52.667Z,98811.41
2022-09-17T01:24:59.574Z,98812.37
2022-09-17T01:26:39.956Z,98802.64
2022-09-17T01:28:02.475Z,98805.31
2022-09-17T01:29:37.900Z,98801.80
2022-09-17T01:30:53.031Z,98800.23
2022-09-17T01:33:19.445Z,98797.76
2022-09-17T01:35:59.109Z,98812.11
2022-09-17T01:37:15.395Z,98812.91
2022-09-17T01:39:39.938Z,98817.45
2022-09-17T01:40:51.211Z,98818.27
2022-09-17T01:42:03.486Z,98819.09
2022-09-17T01:43:12.864Z,98816.29
2022-09-17T01:45:33.458Z,98815.38
2022-09-17T01:48:16.626Z,98812.84
2022-09-17T01:49:19.871Z,98816.16
2022-09-17T01:50:32.509Z,98823.21
2022-09-17T01:51:39.442Z,98816.02
2022-09-17T01:52:41.851Z,98812.51
2022-09-17T01:53:53.434Z,98822.23
2022-09-17T01:54:57.239Z,98830.13
2022-09-17T01:55:59.392Z,98822.11
2022-09-17T01:58:23.935Z,98821.20
2022-09-17T01:59:44.279Z,98828.30
2022-09-17T02:02:11.249Z,98825.55
2022-09-17T02:04:36.817Z,98820.20
2022-09-17T02:05:41.993Z,98825.48
2022-09-17T02:06:46.535Z,98821.97
2022-09-17T02:07:52.400Z,98822.81
2022-09-17T02:09:04.079Z,98826.36
2022-09-17T02:10:09.636Z,98821.84
2022-09-17T02:11:12.669Z,98816.36
2022-09-17T02:12:17.639Z,98824.38
2022-09-17T02:14:47.791Z,98828.69
2022-09-17T02:15:53.968Z,98826.92
2022-09-17T02:17:00.114Z,98823.41
2022-09-17T02:19:26.150Z,98818.82
2022-09-17T02:20:32.577Z,98817.22
2022-09-17T02:21:59.888Z,98814.55
2022-09-17T02:23:04.892Z,98809.06
2022-09-17T02:24:10.812Z,98813.55
2022-09-17T02:25:34.392Z,98808.19
2022-09-17T02:26:39.040Z,98809.20
2022-09-17T02:27:54.041Z,98811.87
2022-09-17T02:28:58.543Z,98807.48
2022-09-17T02:30:00.755Z,98807.48
2022-09-17T02:31:03.761Z,98810.30
2022-09-17T02:32:07.172Z,98812.98
2022-09-17T02:33:12.027Z,98819.30
2022-09-17T02:34:14.161Z,98821.14
2022-09-17T02:35:16.598Z,98821.00
2022-09-17T02:36:20.880Z,98821.84
2022-09-17T02:37:24.055Z,98831.58
2022-09-17T02:38:26.798Z,98823.55
2022-09-17T02:39:28.865Z,98820.88
2022-09-17T02:42:02.526Z,98817.28
2022-09-17T02:44:33.394Z,98821.63
2022-09-17T02:46:04.627Z,98827.80
2022-09-17T02:47:19.514Z,98818.89
2022-09-17T02:48:52.073Z,98820.59
2022-09-17T02:51:52.995Z,98816.28
2022-09-17T02:52:59.925Z,98821.70
2022-09-17T02:54:15.175Z,98822.81
2022-09-17T02:55:19.762Z,98821.14
2022-09-17T02:56:27.182Z,98819.30
2022-09-17T02:57:42.377Z,98809.56
2022-09-17T02:58:55.444Z,98814.08
2022-09-17T03:00:12.787Z,98815.92
2022-09-17T03:02:55.510Z,98804.41
2022-09-17T03:03:58.700Z,98803.51
2022-09-17T03:05:00.791Z,98800.84
2022-09-17T03:06:04.613Z,98795.48
2022-09-17T03:07:06.854Z,98798.16
2022-09-17T03:08:14.665Z,98788.29
2022-09-17T03:09:16.842Z,98785.62
2022-09-17T03:10:19.783Z,98787.32
2022-09-17T03:11:21.962Z,98795.34
2022-09-17T03:12:26.057Z,98785.48
2022-09-17T03:13:28.189Z,98792.54
2022-09-17T03:14:30.812Z,98782.67
2022-09-17T03:15:34.041Z,98785.34
2022-09-17T03:16:36.779Z,98784.38
2022-09-17T03:17:39.013Z,98789.73
2022-09-17T03:18:42.211Z,98792.27
2022-09-17T03:19:44.416Z,98790.56
2022-09-17T03:20:47.617Z,98793.14
2022-09-17T03:21:49.836Z,98800.30
2022-09-17T03:22:51.959Z,98797.62
2022-09-17T03:23:55.210Z,98803.84
2022-09-17T03:24:58.149Z,98802.00
2022-09-17T03:26:00.814Z,98800.16
2022-09-17T03:27:03.163Z,98801.03
2022-09-17T03:28:06.291Z,98804.55
2022-09-17T03:29:08.583Z,98813.41
2022-09-17T03:30:12.142Z,98807.22
2022-09-17T03:31:15.250Z,98811.47
2022-09-17T03:32:17.490Z,98811.47
2022-09-17T03:33:19.699Z,98809.63
2022-09-17T03:34:21.919Z,98811.47
2022-09-17T03:35:24.968Z,98810.50
2022-09-17T03:36:27.778Z,98807.82
2022-09-17T03:37:32.893Z,98807.82
2022-09-17T03:38:33.909Z,98813.03
2022-09-17T03:39:36.349Z,98809.49
2022-09-17T03:40:39.790Z,98812.30
2022-09-17T03:41:42.100Z,98807.82
2022-09-17T03:42:44.259Z,98802.47
2022-09-17T03:43:47.861Z,98803.30
2022-09-17T03:44:50.172Z,98809.49
2022-09-17T03:45:52.278Z,98808.66
2022-09-17T03:46:55.504Z,98807.69
2022-09-17T03:47:57.915Z,98805.98
2022-09-17T03:49:01.617Z,98807.82
2022-09-17T03:50:06.370Z,98816.69
2022-09-17T03:51:09.620Z,98805.98
2022-09-17T03:52:11.784Z,98806.11
2022-09-17T03:53:13.856Z,98808.79
2022-09-17T03:54:15.865Z,98817.66
2022-09-17T03:55:17.949Z,98815.98
2022-09-17T03:56:22.726Z,98822.17
2022-09-17T03:57:24.942Z,98822.17
2022-09-17T03:58:27.720Z,98818.66
2022-09-17T03:59:30.334Z,98814.28
2022-09-17T04:00:32.703Z,98818.77
2022-09-17T04:01:35.062Z,98819.63
2022-09-17T04:02:37.604Z,98827.66
2022-09-17T04:03:39.835Z,98821.44
2022-09-17T04:04:42.869Z,98823.14
2022-09-17T04:05:45.112Z,98815.11
2022-09-17T04:06:48.106Z,98822.30
2022-09-17T04:07:52.303Z,98829.36
2022-09-17T04:08:55.526Z,98823.14
2022-09-17T04:09:57.631Z,98824.98
2022-09-17T04:10:59.908Z,98814.28
2022-09-17T04:12:03.095Z,98810.63
2022-09-17T04:13:05.326Z,98810.63
2022-09-17T04:14:07.433Z,98813.30
2022-09-17T04:15:10.297Z,98806.25
2022-09-17T04:16:13.133Z,98811.00
2022-09-17T04:17:15.335Z,98811.00
2022-09-17T04:18:17.419Z,98821.33
2022-09-17T04:19:19.485Z,98828.36
2022-09-17T04:20:22.084Z,98825.82
2022-09-17T04:21:24.413Z,98840.06
2022-09-17T04:22:27.624Z,98842.61
2022-09-17T04:23:30.316Z,98843.58
2022-09-17T04:24:32.422Z,98838.50
2022-09-17T04:25:35.006Z,98838.50
2022-09-17T04:26:38.828Z,98844.42
2022-09-17T04:27:41.634Z,98843.58
2022-09-17T04:28:43.830Z,98841.74
2022-09-17T04:29:45.919Z,98840.91
2022-09-17T04:30:48.343Z,98839.94
2022-09-17T04:31:50.458Z,98844.42
2022-09-17T04:32:53.504Z,98843.58
2022-09-17T04:33:55.694Z,98846.26
2022-09-17T04:34:58.413Z,98848.94
2022-09-17T04:36:01.543Z,98850.78
2022-09-17T04:37:03.815Z,98854.28
2022-09-17T04:38:05.906Z,98850.78
2022-09-17T04:39:08.425Z,98858.80
2022-09-17T04:40:12.383Z,98858.80
2022-09-17T04:41:15.695Z,98859.77
2022-09-17T04:42:18.088Z,98862.31
2022-09-17T04:43:20.598Z,98858.80
2022-09-17T04:44:22.704Z,98861.48
2022-09-17T04:45:25.077Z,98862.31
2022-09-17T04:46:28.492Z,98862.31
2022-09-17T04:47:30.735Z,98869.52
2022-09-17T04:48:32.830Z,98868.64
2022-09-17T04:49:35.373Z,98869.52
2022-09-17T04:50:37.735Z,98864.99
2022-09-17T04:51:40.341Z,98863.28
2022-09-17T04:52:43.174Z,98859.77
2022-09-17T04:53:46.297Z,98859.77
2022-09-17T04:54:48.573Z,98864.16
2022-09-17T04:55:51.292Z,98850.78
2022-09-17T04:56:53.548Z,98849.77
2022-09-17T04:57:55.627Z,98847.09
2022-09-17T04:58:57.745Z,98849.77
2022-09-17T05:00:00.177Z,98847.23
2022-09-17T05:01:02.651Z,98848.94
2022-09-17T05:02:04.983Z,98840.06
2022-09-17T05:03:08.189Z,98839.20
2022-09-17T05:04:11.825Z,98837.39
2022-09-17T05:05:14.261Z,98837.39
2022-09-17T05:06:18.578Z,98837.39
2022-09-17T05:07:20.712Z,98831.17
2022-09-17T05:08:23.451Z,98825.82
2022-09-17T05:09:25.558Z,98832.04
2022-09-17T05:10:30.802Z,98824.11
2022-09-17T05:11:33.624Z,98828.50
2022-09-17T05:12:35.957Z,98829.36
2022-09-17T05:13:39.314Z,98840.91
2022-09-17T05:14:41.390Z,98844.42
2022-09-17T05:15:43.562Z,98842.61
2022-09-17T05:16:46.061Z,98845.29
2022-09-17T05:17:48.165Z,98849.77
2022-09-17T05:18:50.245Z,98859.51
2022-09-17T05:19:53.353Z,98855.99
2022-09-17T05:20:56.717Z,98861.34
2022-09-17T05:21:58.888Z,98861.34
2022-09-17T05:23:01.935Z,98869.38
2022-09-17T05:24:05.955Z,98856.97
2022-09-17T05:25:08.730Z,98858.67
2022-09-17T05:26:11.981Z,98856.97
2022-09-17T05:27:15.288Z,98855.13
2022-09-17T05:28:17.560Z,98859.64
2022-09-17T05:29:19.841Z,98863.28
2022-09-17T05:30:22.647Z,98859.77
2022-09-17T05:31:24.877Z,98865.96
2022-09-17T05:32:28.152Z,98863.28
2022-09-17T05:33:30.755Z,98865.96
2022-09-17T05:34:34.109Z,98867.80
2022-09-17T05:35:36.222Z,98861.58
2022-09-17T05:36:38.976Z,98861.58
2022-09-17T05:37:41.531Z,98862.45
2022-09-17T05:38:44.746Z,98850.87
2022-09-17T05:39:46.990Z,98858.91
2022-09-17T05:40:50.416Z,98855.39
2022-09-17T05:41:52.946Z,98854.55
2022-09-17T05:44:14.817Z,98864.33
2022-09-17T05:45:15.515Z,98863.42
2022-09-17T05:46:19.998Z,98873.29
2022-09-17T05:47:23.424Z,98867.06
2022-09-17T05:48:26.349Z,98867.94
2022-09-17T05:49:28.967Z,98867.06
2022-09-17T05:50:33.567Z,98870.61
2022-09-17T05:51:35.778Z,98863.42
2022-09-17T05:52:37.944Z,98858.07
2022-09-17T05:53:40.055Z,98852.72
2022-09-17T05:54:42.671Z,98850.87
2022-09-17T05:55:45.804Z,98849.07
2022-09-17T05:56:53.903Z,98850.87
2022-09-17T05:57:56.049Z,98852.58
2022-09-17T05:58:58.130Z,98851.61
2022-09-17T06:00:00.908Z,98853.45
2022-09-17T06:01:03.277Z,98857.80
2022-09-17T06:02:05.957Z,98850.78
2022-09-17T06:03:09.851Z,98862.31
2022-09-17T06:04:12.141Z,98858.80
2022-09-17T06:05:14.224Z,98868.51
2022-09-17T06:06:17.092Z,98869.52
2022-09-17T06:07:19.162Z,98867.67
2022-09-17T06:08:22.060Z,98871.19
2022-09-17T06:09:24.325Z,98875.70
2022-09-17T06:10:26.546Z,98882.76
2022-09-17T06:11:29.066Z,98877.54
2022-09-17T06:12:31.400Z,98882.89
2022-09-17T06:13:34.537Z,98874.86
2022-09-17T06:14:36.622Z,98876.53
2022-09-17T06:15:38.698Z,98875.70
2022-09-17T06:16:40.934Z,98877.54
2022-09-17T06:17:44.157Z,98876.67
2022-09-17T06:18:46.269Z,98871.31
2022-09-17T06:19:48.461Z,98877.54
2022-09-17T06:20:58.935Z,98877.54
2022-09-17T06:22:01.071Z,98873.99
2022-09-17T06:23:03.287Z,98872.19
2022-09-17T06:24:05.481Z,98881.05
2022-09-17T06:25:08.097Z,98877.54
2022-09-17T06:26:11.963Z,98884.56
2022-09-17T06:27:15.196Z,98880.22
2022-09-17T06:28:17.323Z,98873.16
2022-09-17T06:29:20.041Z,98868.64
2022-09-17T06:30:23.408Z,98873.16
2022-09-17T06:31:26.905Z,98878.51
2022-09-17T06:32:29.290Z,98869.61
2022-09-17T06:33:32.645Z,98871.31
2022-09-17T06:34:35.333Z,98867.80
2022-09-17T06:35:37.444Z,98863.28
2022-09-17T06:36:39.744Z,98858.91
2022-09-17T06:37:42.896Z,98857.09
2022-09-17T06:38:46.041Z,98860.75
2022-09-17T06:39:48.242Z,98861.48
2022-09-17T06:40:51.382Z,98855.13
2022-09-17T06:41:53.602Z,98864.02
2022-09-17T06:42:58.263Z,98867.41
2022-09-17T06:44:01.895Z,98873.73
2022-09-17T06:45:09.337Z,98872.75
2022-09-17T06:46:11.955Z,98875.44
2022-09-17T06:48:16.665Z,98880.78
2022-09-17T06:49:18.866Z,98883.46
2022-09-17T06:50:22.066Z,98885.03
2022-09-17T06:51:24.280Z,98882.23
2022-09-17T06:52:26.502Z,98883.93
2022-09-17T06:53:28.693Z,98862.31
2022-09-17T06:54:30.802Z,98875.77
2022-09-17T06:55:34.315Z,98877.47
2022-09-17T06:56:37.514Z,98874.66
2022-09-17T06:57:40.127Z,98874.53
2022-09-17T06:58:42.224Z,98871.85
2022-09-17T06:59:44.606Z,98873.56
2022-09-17T07:00:48.242Z,98882.42
2022-09-17T07:01:50.674Z,98881.45
2022-09-17T07:02:57.136Z,98883.16
2022-09-17T07:03:59.261Z,98882.16
2022-09-17T07:05:02.569Z,98878.51
2022-09-17T07:06:09.833Z,98879.34
2022-09-17T07:07:11.985Z,98879.21
2022-09-17T07:08:15.044Z,98887.17
2022-09-17T07:09:17.832Z,98885.33
2022-09-17T07:10:23.344Z,98882.66
2022-09-17T07:11:25.524Z,98877.40
2022-09-17T07:12:28.061Z,98885.44
2022-09-17T07:13:30.206Z,98889.08
2022-09-17T07:14:32.404Z,98882.02
2022-09-17T07:15:34.737Z,98881.19
2022-09-17T07:16:37.385Z,98881.32
2022-09-17T07:17:40.379Z,98880.48
2022-09-17T07:18:43.480Z,98880.48
2022-09-17T07:19:46.335Z,98884.12
2022-09-17T07:22:06.054Z,98892.96
2022-09-17T07:23:08.207Z,98892.03
2022-09-17T07:24:11.126Z,98888.52
2022-09-17T07:25:14.022Z,98886.67
2022-09-17T07:26:17.836Z,98884.00
2022-09-17T07:27:19.996Z,98880.48
2022-09-17T07:28:22.282Z,98884.12
2022-09-17T07:29:24.931Z,98882.29
2022-09-17T07:30:27.569Z,98887.64
2022-09-17T07:31:29.709Z,98884.97
2022-09-17T07:32:31.954Z,98884.97
2022-09-17T07:33:34.644Z,98888.62
2022-09-17T07:34:36.883Z,98887.64
2022-09-17T07:35:39.006Z,98880.59
2022-09-17T07:36:42.642Z,98873.56
2022-09-17T07:37:45.862Z,98876.37
2022-09-17T07:38:48.723Z,98876.37
2022-09-17T07:39:52.119Z,98874.66
2022-09-17T07:41:01.935Z,98882.70
2022-09-17T07:42:04.350Z,98884.50
2022-09-17T07:43:06.805Z,98880.98
2022-09-17T07:44:09.981Z,98888.18
2022-09-17T07:45:13.624Z,98885.50
2022-09-17T07:46:17.905Z,98883.80
2022-09-17T07:47:20.846Z,98881.95
2022-09-17T07:48:25.082Z,98884.63
2022-09-17T07:49:27.734Z,98887.31
2022-09-17T07:50:30.741Z,98887.31
2022-09-17T07:51:32.930Z,98889.16
2022-09-17T07:52:35.596Z,98890.13
2022-09-17T07:53:38.929Z,98890.13
2022-09-17T07:54:41.032Z,98892.80
2022-09-17T07:57:02.930Z,98887.52
2022-09-17T07:58:05.641Z,98881.39
2022-09-17T07:59:08.952Z,98881.39
2022-09-17T08:00:13.171Z,98879.69
2022-09-17T08:01:15.973Z,98882.36
2022-09-17T08:02:23.213Z,98871.66
2022-09-17T08:03:22.419Z,98874.33
2022-09-17T08:04:25.217Z,98873.36
2022-09-17T08:05:28.026Z,98874.20
2022-09-17T08:06:31.394Z,98856.13
2022-09-17T08:07:33.636Z,98856.13
2022-09-17T08:08:40.859Z,98876.47
2022-09-17T08:09:43.449Z,98872.82
2022-09-17T08:10:46.989Z,98877.20
2022-09-17T08:11:56.043Z,98873.69
2022-09-17T08:12:56.578Z,98865.53
2022-09-17T08:14:00.022Z,98866.50
2022-09-17T08:15:02.972Z,98868.34
2022-09-17T08:16:10.008Z,98870.14
2022-09-17T08:17:12.371Z,98860.41
2022-09-17T08:18:16.124Z,98864.09
2022-09-17T08:19:19.103Z,98863.09
2022-09-17T08:20:22.438Z,98860.41
2022-09-17T08:21:24.775Z,98857.87
2022-09-17T08:22:27.033Z,98860.55
2022-09-17T08:23:30.027Z,98871.25
2022-09-17T08:24:32.261Z,98870.41
2022-09-17T08:25:34.387Z,98881.13
2022-09-17T08:26:36.672Z,98889.16
2022-09-17T08:27:40.685Z,98883.93
2022-09-17T08:28:47.110Z,98877.70
2022-09-17T08:29:49.875Z,98878.58
2022-09-17T08:30:53.328Z,98879.41
2022-09-17T08:31:56.045Z,98880.52
2022-09-17T08:32:58.214Z,98885.88
2022-09-17T08:34:00.537Z,98890.39
2022-09-17T08:35:02.856Z,98885.30
2022-09-17T08:36:07.694Z,98890.78
2022-09-17T08:37:10.154Z,98890.78
2022-09-17T08:38:12.381Z,98891.76
2022-09-17T08:39:16.149Z,98891.89
2022-09-17T08:40:19.833Z,98892.86
2022-09-17T08:41:35.013Z,98899.19
2022-09-17T08:44:04.454Z,98895.87
2022-09-17T08:45:12.846Z,98897.73
2022-09-17T08:46:16.753Z,98899.71
2022-09-17T08:47:31.592Z,98889.98
2022-09-17T08:48:44.868Z,98890.95
2022-09-17T08:49:53.401Z,98894.48
2022-09-17T08:51:01.649Z,98890.24
2022-09-17T08:52:12.872Z,98896.43
2022-09-17T08:53:43.352Z,98890.24
2022-09-17T08:56:09.763Z,98887.77
2022-09-17T08:57:18.576Z,98887.70
2022-09-17T08:58:53.644Z,98888.53
2022-09-17T09:01:20.331Z,98886.67
2022-09-17T09:02:30.205Z,98882.08
2022-09-17T09:04:09.488Z,98886.47
2022-09-17T09:06:39.371Z,98873.99
2022-09-17T09:07:52.014Z,98873.92
2022-09-17T09:08:57.442Z,98874.89
2022-09-17T09:10:06.573Z,98880.98
2022-09-17T09:11:24.483Z,98867.59
2022-09-17T09:12:27.739Z,98880.01
2022-09-17T09:13:40.567Z,98863.08
2022-09-17T09:14:48.610Z,98866.63
2022-09-17T09:15:59.216Z,98875.49
2022-09-17T09:17:05.642Z,98879.87
2022-09-17T09:19:30.341Z,98874.59
2022-09-17T09:21:09.228Z,98872.69
2022-09-17T09:22:14.470Z,98872.69
2022-09-17T09:23:30.615Z,98861.02
2022-09-17T09:24:39.489Z,98873.52
2022-09-17T09:27:01.348Z,98862.19
2022-09-17T09:28:16.672Z,98867.59
2022-09-17T09:31:10.686Z,98868.51
2022-09-17T09:32:38.223Z,98871.11
2022-09-17T09:33:45.625Z,98864.09
2022-09-17T09:34:45.596Z,98870.41
2022-09-17T09:35:47.763Z,98859.70
2022-09-17T09:36:50.956Z,98873.22
2022-09-17T09:38:05.211Z,98873.22
2022-09-17T09:40:37.093Z,98866.94
2022-09-17T09:41:50.571Z,98874.05
2022-09-17T09:42:53.438Z,98866.16
2022-09-17T09:44:12.514Z,98875.89
2022-09-17T09:45:17.030Z,98867.87
2022-09-17T09:46:58.627Z,98874.05
2022-09-17T09:49:48.771Z,98889.34
2022-09-17T09:51:06.179Z,98883.92
2022-09-17T09:52:20.660Z,98887.70
2022-09-17T09:53:47.986Z,98891.34
2022-09-17T09:55:26.798Z,98880.64
2022-09-17T09:56:45.525Z,98882.48
2022-09-17T09:59:07.465Z,98875.63
2022-09-17T10:01:40.508Z,98874.05
2022-09-17T10:02:43.110Z,98880.30
2022-09-17T10:03:46.632Z,98882.97
2022-09-17T10:04:53.258Z,98891.13
2022-09-17T10:05:58.250Z,98888.32
2022-09-17T10:07:02.684Z,98887.36
2022-09-17T10:09:24.046Z,98899.58
2022-09-17T10:10:26.971Z,98892.44
2022-09-17T10:11:30.721Z,98903.14
2022-09-17T10:12:34.938Z,98899.50
2022-09-17T10:13:37.363Z,98899.50
2022-09-17T10:14:40.572Z,98902.05
2022-09-17T10:15:42.868Z,98894.85
2022-09-17T10:16:46.658Z,98895.59
2022-09-17T10:17:51.142Z,98899.11
2022-09-17T10:19:09.503Z,98894.63
2022-09-17T10:20:17.259Z,98892.78
2022-09-17T10:21:24.566Z,98890.11
2022-09-17T10:22:31.312Z,98888.27
2022-09-17T10:23:37.067Z,98881.11
2022-09-17T10:24:39.927Z,98884.62
2022-09-17T10:25:43.550Z,98883.78
2022-09-17T10:26:45.882Z,98884.62
2022-09-17T10:27:47.997Z,98889.98
2022-09-17T10:30:11.439Z,98885.44
2022-09-17T10:31:13.625Z,98899.58
2022-09-17T10:32:17.720Z,98893.26
2022-09-17T10:33:24.391Z,98891.42
2022-09-17T10:35:40.098Z,98877.84
2022-09-17T10:36:44.614Z,98876.94
2022-09-17T10:37:48.376Z,98868.83
2022-09-17T10:38:50.618Z,98868.83
2022-09-17T10:39:55.670Z,98875.97
2022-09-17T10:41:17.183Z,98876.80
2022-09-17T10:42:20.643Z,98878.64
2022-09-17T10:43:23.992Z,98882.99
2022-09-17T10:44:27.947Z,98886.53
2022-09-17T10:45:30.718Z,98891.89
2022-09-17T10:46:34.368Z,98882.02
2022-09-17T10:47:42.032Z,98883.73
2022-09-17T10:50:01.459Z,98875.77
2022-09-17T10:51:03.814Z,98873.99
2022-09-17T10:52:08.388Z,98879.34
2022-09-17T10:53:15.487Z,98882.89
2022-09-17T10:54:27.560Z,98891.89
2022-09-17T10:55:41.483Z,98895.41
2022-09-17T10:56:53.974Z,98892.73
2022-09-17T10:58:09.271Z,98894.44
2022-09-17T10:59:30.663Z,98880.22
2022-09-17T11:00:53.356Z,98880.22
2022-09-17T11:02:08.399Z,98889.21
2022-09-17T11:03:46.412Z,98889.48
2022-09-17T11:05:02.515Z,98897.73
2022-09-17T11:06:20.668Z,98892.66
2022-09-17T11:07:51.244Z,98890.24
2022-09-17T11:10:18.308Z,98888.74
2022-09-17T11:11:36.428Z,98887.95
2022-09-17T11:12:48.098Z,98886.25
2022-09-17T11:14:05.744Z,98893.41
2022-09-17T11:18:02.570Z,98879.53
2022-09-17T11:19:09.076Z,98886.17
2022-09-17T11:20:46.208Z,98877.41
2022-09-17T11:21:52.267Z,98876.57
2022-09-17T11:23:22.824Z,98872.06
2022-09-17T11:24:48.453Z,98873.90
2022-09-17T11:26:04.622Z,98874.86
2022-09-17T11:27:14.484Z,98868.67
2022-09-17T11:28:46.366Z,98870.52
2022-09-17T11:30:17.867Z,98871.61
2022-09-17T11:33:07.425Z,98873.50
2022-09-17T11:35:40.593Z,98867.94
2022-09-17T11:36:50.220Z,98871.40
2022-09-17T11:38:02.292Z,98862.64
2022-09-17T11:39:20.230Z,98867.02
2022-09-17T11:41:46.276Z,98867.58
2022-09-17T11:42:56.594Z,98867.50
2022-09-17T11:44:17.012Z,98851.31
2022-09-17T11:45:27.097Z,98856.53
2022-09-17T11:46:35.802Z,98852.89
2022-09-17T11:49:11.887Z,98850.87
2022-09-17T11:50:31.300Z,98849.11
2022-09-17T11:51:38.952Z,98852.50
2022-09-17T11:54:20.899Z,98838.23
2022-09-17T11:55:29.691Z,98844.47
2022-09-17T11:56:50.401Z,98830.26
2022-09-17T11:57:56.470Z,98824.04
2022-09-17T11:59:02.423Z,98816.88
2022-09-17T12:00:08.186Z,98816.88
2022-09-17T12:01:31.120Z,98808.73
2022-09-17T12:04:28.154Z,98814.85
2022-09-17T12:05:35.592Z,98817.59
2022-09-17T12:06:42.423Z,98822.94
2022-09-17T12:07:49.162Z,98825.61
2022-09-17T12:08:55.087Z,98823.07
2022-09-17T12:10:20.793Z,98817.72
2022-09-17T12:11:32.548Z,98824.78
2022-09-17T12:12:49.579Z,98824.78
2022-09-17T12:15:04.076Z,98826.42
2022-09-17T12:16:22.156Z,98822.94
2022-09-17T12:17:26.830Z,98826.45
2022-09-17T12:18:48.335Z,98834.48
2022-09-17T12:19:54.056Z,98830.83
2022-09-17T12:20:56.903Z,98828.16
2022-09-17T12:22:02.937Z,98820.86
2022-09-17T12:23:08.599Z,98820.00
2022-09-17T12:24:17.036Z,98814.65
2022-09-17T12:25:19.623Z,98805.66
2022-09-17T12:26:55.337Z,98811.00
2022-09-17T12:28:00.078Z,98800.30
2022-09-17T12:29:19.262Z,98807.36
2022-09-17T12:30:23.796Z,98805.38
2022-09-17T12:31:48.705Z,98803.58
2022-09-17T12:33:04.328Z,98801.73
2022-09-17T12:34:22.642Z,98815.82
2022-09-17T12:36:04.354Z,98815.95
2022-09-17T12:37:19.730Z,98814.15
2022-09-17T12:38:44.237Z,98826.52
2022-09-17T12:40:05.439Z,98831.88
2022-09-17T12:41:14.612Z,98819.50
2022-09-17T12:43:44.357Z,98817.73
2022-09-17T12:46:23.110Z,98809.70
2022-09-17T12:47:49.012Z,98801.73
2022-09-17T12:49:26.662Z,98799.06
2022-09-17T12:52:06.133Z,98800.84
2022-09-17T12:53:29.130Z,98798.09
2022-09-17T12:54:55.809Z,98792.88
2022-09-17T12:56:13.653Z,98800.77
2022-09-17T12:57:20.170Z,98803.45
2022-09-17T12:58:35.175Z,98799.91
2022-09-17T12:59:47.433Z,98804.28
2022-09-17T13:01:09.027Z,98804.15
2022-09-17T13:02:24.027Z,98811.34
2022-09-17T13:03:30.428Z,98816.69
2022-09-17T13:05:07.304Z,98822.04
2022-09-17T13:07:27.180Z,98820.00
2022-09-17T13:08:53.094Z,98819.09
2022-09-17T13:10:26.665Z,98814.72
2022-09-17T13:11:42.359Z,98812.78
2022-09-17T13:13:06.362Z,98802.91
2022-09-17T13:14:12.775Z,98800.23
2022-09-17T13:15:40.645Z,98802.91
2022-09-17T13:16:56.368Z,98798.42
2022-09-17T13:19:46.374Z,98804.68
2022-09-17T13:22:08.235Z,98787.78
2022-09-17T13:23:10.567Z,98797.56
2022-09-17T13:24:16.801Z,98793.91
2022-09-17T13:25:19.682Z,98797.42
2022-09-17T13:26:35.474Z,98796.45
2022-09-17T13:27:38.233Z,98804.34
2022-09-17T13:29:57.021Z,98793.78
2022-09-17T13:31:00.581Z,98794.75
2022-09-17T13:32:03.484Z,98794.75
2022-09-17T13:33:06.298Z,98799.97
2022-09-17T13:34:21.021Z,98797.29
2022-09-17T13:35:27.143Z,98802.64
2022-09-17T13:36:49.479Z,98803.51
2022-09-17T13:37:55.571Z,98802.64
2022-09-17T13:38:59.411Z,98812.51
2022-09-17T13:40:03.261Z,98815.31
2022-09-17T13:41:19.461Z,98810.94
2022-09-17T13:42:29.529Z,98820.80
2022-09-17T13:43:32.782Z,98818.39
2022-09-17T13:44:36.845Z,98815.59
2022-09-17T13:46:00.557Z,98815.59
2022-09-17T13:48:21.141Z,98821.14
2022-09-17T13:49:23.902Z,98820.33
2022-09-17T13:50:38.348Z,98815.12
2022-09-17T13:51:43.046Z,98805.38
2022-09-17T13:52:46.928Z,98793.25
2022-09-17T13:53:52.747Z,98793.25
2022-09-17T13:54:55.056Z,98799.91
2022-09-17T13:55:57.395Z,98802.44
2022-09-17T13:57:06.751Z,98803.18
2022-09-17T13:58:22.030Z,98792.48
2022-09-17T13:59:25.934Z,98783.48
2022-09-17T14:02:17.297Z,98770.72
2022-09-17T14:03:30.865Z,98771.53
2022-09-17T14:04:42.964Z,98769.83
2022-09-17T14:05:47.234Z,98771.67
2022-09-17T14:06:50.717Z,98769.83
2022-09-17T14:07:52.863Z,98769.09
2022-09-17T14:08:55.651Z,98765.45
2022-09-17T14:10:02.139Z,98765.45
2022-09-17T14:11:08.245Z,98766.19
2022-09-17T14:12:42.098Z,98766.31
2022-09-17T14:13:44.837Z,98769.83
2022-09-17T14:14:50.758Z,98777.86
2022-09-17T14:15:57.952Z,98783.21
2022-09-17T14:17:00.318Z,98781.37
2022-09-17T14:18:09.093Z,98777.86
2022-09-17T14:19:31.229Z,98783.21
2022-09-17T14:20:33.686Z,98776.02
2022-09-17T14:21:36.487Z,98776.02
2022-09-17T14:22:39.793Z,98782.37
2022-09-17T14:23:48.524Z,98770.09
2022-09-17T14:24:52.357Z,98779.80
2022-09-17T14:25:55.156Z,98772.64
2022-09-17T14:27:38.647Z,98769.09
2022-09-17T14:30:12.470Z,98769.16
2022-09-17T14:31:20.560Z,98770.09
2022-09-17T14:32:43.955Z,98772.91
2022-09-17T14:33:46.153Z,98768.53